sensor_id;sensor_type;location;lat;lon;timestamp;P1;durP1;ratioP1;P2;durP2;ratioP2
56297;SDS011;42208;6.376;-10.782;2023-01-20T00:01:39;69.00;;;25.60;;
56297;SDS011;42208;6.376;-10.782;2023-01-20T00:04:09;70.85;;;24.25;;
56297;SDS011;42208;6.376;-10.782;2023-01-20T00:06:37;50.90;;;23.63;;
56297;SDS011;42208;6.376;-10.782;2023-01-20T00:09:05;130.30;;;49.47;;
56297;SDS011;42208;6.376;-10.782;2023-01-20T00:11:33;134.50;;;66.10;;
56297;SDS011;42208;6.376;-10.782;2023-01-20T00:14:02;123.88;;;49.53;;
56297;SDS011;42208;6.376;-10.782;2023-01-20T00:16:31;127.32;;;55.88;;
56297;SDS011;42208;6.376;-10.782;2023-01-20T00:19:00;138.60;;;64.93;;
56297;SDS011;42208;6.376;-10.782;2023-01-20T00:21:29;213.25;;;95.45;;
56297;SDS011;42208;6.376;-10.782;2023-01-20T00:23:57;235.43;;;110.82;;
56297;SDS011;42208;6.376;-10.782;2023-01-20T00:26:26;267.38;;;111.07;;
56297;SDS011;42208;6.376;-10.782;2023-01-20T00:28:55;221.00;;;86.45;;
56297;SDS011;42208;6.376;-10.782;2023-01-20T00:31:25;210.63;;;84.00;;
56297;SDS011;42208;6.376;-10.782;2023-01-20T00:33:56;276.00;;;106.60;;
56297;SDS011;42208;6.376;-10.782;2023-01-20T00:36:26;270.17;;;107.57;;
56297;SDS011;42208;6.376;-10.782;2023-01-20T00:38:56;186.75;;;73.05;;
56297;SDS011;42208;6.376;-10.782;2023-01-20T00:41:24;145.35;;;59.08;;
56297;SDS011;42208;6.376;-10.782;2023-01-20T00:43:53;191.75;;;76.10;;
56297;SDS011;42208;6.376;-10.782;2023-01-20T00:46:21;178.70;;;71.70;;
56297;SDS011;42208;6.376;-10.782;2023-01-20T00:48:49;164.35;;;71.97;;
56297;SDS011;42208;6.376;-10.782;2023-01-20T00:51:18;135.63;;;63.75;;
56297;SDS011;42208;6.376;-10.782;2023-01-20T00:53:46;174.77;;;81.90;;
56297;SDS011;42208;6.376;-10.782;2023-01-20T00:56:14;172.70;;;76.13;;
56297;SDS011;42208;6.376;-10.782;2023-01-20T00:58:43;165.88;;;70.22;;
56297;SDS011;42208;6.376;-10.782;2023-01-20T01:01:11;146.20;;;66.88;;
56297;SDS011;42208;6.376;-10.782;2023-01-20T01:03:39;160.57;;;70.28;;
56297;SDS011;42208;6.376;-10.782;2023-01-20T01:06:14;155.82;;;69.80;;
56297;SDS011;42208;6.376;-10.782;2023-01-20T01:08:44;134.45;;;58.40;;
56297;SDS011;42208;6.376;-10.782;2023-01-20T01:11:12;172.57;;;74.15;;
56297;SDS011;42208;6.376;-10.782;2023-01-20T01:13:41;148.27;;;75.38;;
56297;SDS011;42208;6.376;-10.782;2023-01-20T01:16:10;157.73;;;72.45;;
56297;SDS011;42208;6.376;-10.782;2023-01-20T01:18:40;148.60;;;69.25;;
56297;SDS011;42208;6.376;-10.782;2023-01-20T01:21:10;161.30;;;69.85;;
56297;SDS011;42208;6.376;-10.782;2023-01-20T01:23:41;138.43;;;66.20;;
56297;SDS011;42208;6.376;-10.782;2023-01-20T01:26:09;128.50;;;60.00;;
56297;SDS011;42208;6.376;-10.782;2023-01-20T01:28:38;118.97;;;60.00;;
56297;SDS011;42208;6.376;-10.782;2023-01-20T01:31:07;122.40;;;56.10;;
56297;SDS011;42208;6.376;-10.782;2023-01-20T01:33:36;108.90;;;57.70;;
56297;SDS011;42208;6.376;-10.782;2023-01-20T01:36:05;136.32;;;63.08;;
56297;SDS011;42208;6.376;-10.782;2023-01-20T01:38:34;128.63;;;68.90;;
56297;SDS011;42208;6.376;-10.782;2023-01-20T01:41:03;148.77;;;69.43;;
56297;SDS011;42208;6.376;-10.782;2023-01-20T01:43:34;155.00;;;66.82;;
56297;SDS011;42208;6.376;-10.782;2023-01-20T01:46:03;129.77;;;60.00;;
56297;SDS011;42208;6.376;-10.782;2023-01-20T01:51:12;136.38;;;62.55;;
56297;SDS011;42208;6.376;-10.782;2023-01-20T01:53:49;119.55;;;60.53;;
56297;SDS011;42208;6.376;-10.782;2023-01-20T01:56:27;129.25;;;58.47;;
56297;SDS011;42208;6.376;-10.782;2023-01-20T01:58:57;128.60;;;56.92;;
56297;SDS011;42208;6.376;-10.782;2023-01-20T02:01:31;123.25;;;58.72;;
56297;SDS011;42208;6.376;-10.782;2023-01-20T02:04:10;123.95;;;55.03;;
56297;SDS011;42208;6.376;-10.782;2023-01-20T02:06:41;112.13;;;50.65;;
56297;SDS011;42208;6.376;-10.782;2023-01-20T02:09:16;117.20;;;50.15;;
56297;SDS011;42208;6.376;-10.782;2023-01-20T02:11:49;100.57;;;45.13;;
56297;SDS011;42208;6.376;-10.782;2023-01-20T02:14:30;100.40;;;45.72;;
56297;SDS011;42208;6.376;-10.782;2023-01-20T02:26:04;125.63;;;52.03;;
56297;SDS011;42208;6.376;-10.782;2023-01-20T02:31:13;145.10;;;52.85;;
56297;SDS011;42208;6.376;-10.782;2023-01-20T02:33:59;135.82;;;48.08;;
56297;SDS011;42208;6.376;-10.782;2023-01-20T02:36:49;135.73;;;54.47;;
56297;SDS011;42208;6.376;-10.782;2023-01-20T02:39:25;132.27;;;52.03;;
56297;SDS011;42208;6.376;-10.782;2023-01-20T02:42:10;129.32;;;50.63;;
56297;SDS011;42208;6.376;-10.782;2023-01-20T02:50:36;149.75;;;50.35;;
56297;SDS011;42208;6.376;-10.782;2023-01-20T02:53:26;127.07;;;50.42;;
56297;SDS011;42208;6.376;-10.782;2023-01-20T02:55:59;124.68;;;49.33;;
56297;SDS011;42208;6.376;-10.782;2023-01-20T02:58:46;122.53;;;49.60;;
56297;SDS011;42208;6.376;-10.782;2023-01-20T03:01:24;122.60;;;45.60;;
56297;SDS011;42208;6.376;-10.782;2023-01-20T03:03:59;118.25;;;45.88;;
56297;SDS011;42208;6.376;-10.782;2023-01-20T03:06:34;144.40;;;48.70;;
56297;SDS011;42208;6.376;-10.782;2023-01-20T03:09:09;137.70;;;46.42;;
56297;SDS011;42208;6.376;-10.782;2023-01-20T03:11:43;116.50;;;44.22;;
56297;SDS011;42208;6.376;-10.782;2023-01-20T03:14:17;115.70;;;47.75;;
56297;SDS011;42208;6.376;-10.782;2023-01-20T03:16:45;115.25;;;48.17;;
56297;SDS011;42208;6.376;-10.782;2023-01-20T03:19:14;108.07;;;45.85;;
56297;SDS011;42208;6.376;-10.782;2023-01-20T03:21:46;120.50;;;43.47;;
56297;SDS011;42208;6.376;-10.782;2023-01-20T03:24:15;122.28;;;44.28;;
56297;SDS011;42208;6.376;-10.782;2023-01-20T03:26:43;110.35;;;43.70;;
56297;SDS011;42208;6.376;-10.782;2023-01-20T03:29:11;105.97;;;40.92;;
56297;SDS011;42208;6.376;-10.782;2023-01-20T03:31:47;93.70;;;39.17;;
56297;SDS011;42208;6.376;-10.782;2023-01-20T03:34:22;96.10;;;39.17;;
56297;SDS011;42208;6.376;-10.782;2023-01-20T03:36:52;93.63;;;39.72;;
56297;SDS011;42208;6.376;-10.782;2023-01-20T03:39:21;90.15;;;37.80;;
56297;SDS011;42208;6.376;-10.782;2023-01-20T03:55:58;69.53;;;32.17;;
56297;SDS011;42208;6.376;-10.782;2023-01-20T03:58:44;72.63;;;33.00;;
56297;SDS011;42208;6.376;-10.782;2023-01-20T04:01:17;59.45;;;30.52;;
56297;SDS011;42208;6.376;-10.782;2023-01-20T04:03:50;77.60;;;33.20;;
56297;SDS011;42208;6.376;-10.782;2023-01-20T04:06:20;71.00;;;32.53;;
56297;SDS011;42208;6.376;-10.782;2023-01-20T04:08:58;74.07;;;36.20;;
56297;SDS011;42208;6.376;-10.782;2023-01-20T04:11:32;66.65;;;35.10;;
56297;SDS011;42208;6.376;-10.782;2023-01-20T04:14:01;66.05;;;33.38;;
56297;SDS011;42208;6.376;-10.782;2023-01-20T04:16:29;67.75;;;32.70;;
56297;SDS011;42208;6.376;-10.782;2023-01-20T04:18:57;66.15;;;32.72;;
56297;SDS011;42208;6.376;-10.782;2023-01-20T04:21:40;73.22;;;33.17;;
56297;SDS011;42208;6.376;-10.782;2023-01-20T04:27:02;69.45;;;31.10;;
56297;SDS011;42208;6.376;-10.782;2023-01-20T04:29:30;80.18;;;32.83;;
56297;SDS011;42208;6.376;-10.782;2023-01-20T04:31:59;62.58;;;32.95;;
56297;SDS011;42208;6.376;-10.782;2023-01-20T04:34:28;65.80;;;31.77;;
56297;SDS011;42208;6.376;-10.782;2023-01-20T04:36:57;60.63;;;32.10;;
56297;SDS011;42208;6.376;-10.782;2023-01-20T04:39:25;64.95;;;33.03;;
56297;SDS011;42208;6.376;-10.782;2023-01-20T04:41:53;60.05;;;31.85;;
56297;SDS011;42208;6.376;-10.782;2023-01-20T04:44:21;62.40;;;32.08;;
56297;SDS011;42208;6.376;-10.782;2023-01-20T04:46:49;61.83;;;31.75;;
56297;SDS011;42208;6.376;-10.782;2023-01-20T04:49:22;59.45;;;30.25;;
56297;SDS011;42208;6.376;-10.782;2023-01-20T04:51:50;56.10;;;29.50;;
56297;SDS011;42208;6.376;-10.782;2023-01-20T04:54:18;62.92;;;29.88;;
56297;SDS011;42208;6.376;-10.782;2023-01-20T04:56:47;65.72;;;31.90;;
56297;SDS011;42208;6.376;-10.782;2023-01-20T04:59:15;74.47;;;32.90;;
56297;SDS011;42208;6.376;-10.782;2023-01-20T05:01:43;63.58;;;31.38;;
56297;SDS011;42208;6.376;-10.782;2023-01-20T05:04:12;63.60;;;28.45;;
56297;SDS011;42208;6.376;-10.782;2023-01-20T05:06:40;64.30;;;31.48;;
56297;SDS011;42208;6.376;-10.782;2023-01-20T05:09:10;71.78;;;32.63;;
56297;SDS011;42208;6.376;-10.782;2023-01-20T05:11:41;68.63;;;31.92;;
56297;SDS011;42208;6.376;-10.782;2023-01-20T05:14:10;77.75;;;33.63;;
56297;SDS011;42208;6.376;-10.782;2023-01-20T05:16:39;74.03;;;33.45;;
56297;SDS011;42208;6.376;-10.782;2023-01-20T05:19:09;82.55;;;34.78;;
56297;SDS011;42208;6.376;-10.782;2023-01-20T05:21:38;90.30;;;36.90;;
56297;SDS011;42208;6.376;-10.782;2023-01-20T05:24:07;84.28;;;33.95;;
56297;SDS011;42208;6.376;-10.782;2023-01-20T05:26:35;68.88;;;33.58;;
56297;SDS011;42208;6.376;-10.782;2023-01-20T05:29:04;76.63;;;33.35;;
56297;SDS011;42208;6.376;-10.782;2023-01-20T05:31:32;75.90;;;34.05;;
56297;SDS011;42208;6.376;-10.782;2023-01-20T05:34:00;73.88;;;33.03;;
56297;SDS011;42208;6.376;-10.782;2023-01-20T05:36:29;78.00;;;32.60;;
56297;SDS011;42208;6.376;-10.782;2023-01-20T05:38:57;85.82;;;32.00;;
56297;SDS011;42208;6.376;-10.782;2023-01-20T05:41:25;72.50;;;31.52;;
56297;SDS011;42208;6.376;-10.782;2023-01-20T05:43:54;80.53;;;33.08;;
56297;SDS011;42208;6.376;-10.782;2023-01-20T05:46:22;83.47;;;32.20;;
56297;SDS011;42208;6.376;-10.782;2023-01-20T05:48:50;77.22;;;32.65;;
56297;SDS011;42208;6.376;-10.782;2023-01-20T05:51:19;73.05;;;31.65;;
56297;SDS011;42208;6.376;-10.782;2023-01-20T05:53:47;63.55;;;29.80;;
56297;SDS011;42208;6.376;-10.782;2023-01-20T05:56:15;77.55;;;31.85;;
56297;SDS011;42208;6.376;-10.782;2023-01-20T05:58:43;74.68;;;31.05;;
56297;SDS011;42208;6.376;-10.782;2023-01-20T06:01:12;76.00;;;31.80;;
56297;SDS011;42208;6.376;-10.782;2023-01-20T06:03:40;68.53;;;30.63;;
56297;SDS011;42208;6.376;-10.782;2023-01-20T06:06:09;57.10;;;30.58;;
56297;SDS011;42208;6.376;-10.782;2023-01-20T06:08:39;60.95;;;30.50;;
56297;SDS011;42208;6.376;-10.782;2023-01-20T06:11:07;60.55;;;31.75;;
56297;SDS011;42208;6.376;-10.782;2023-01-20T06:13:36;63.80;;;30.98;;
56297;SDS011;42208;6.376;-10.782;2023-01-20T06:16:04;63.97;;;31.15;;
56297;SDS011;42208;6.376;-10.782;2023-01-20T06:18:33;72.28;;;32.97;;
56297;SDS011;42208;6.376;-10.782;2023-01-20T06:21:02;59.10;;;28.75;;
56297;SDS011;42208;6.376;-10.782;2023-01-20T06:23:30;65.80;;;32.63;;
56297;SDS011;42208;6.376;-10.782;2023-01-20T06:26:00;59.17;;;31.95;;
56297;SDS011;42208;6.376;-10.782;2023-01-20T06:28:30;74.37;;;32.87;;
56297;SDS011;42208;6.376;-10.782;2023-01-20T06:31:00;63.67;;;30.48;;
56297;SDS011;42208;6.376;-10.782;2023-01-20T06:33:30;64.28;;;31.60;;
56297;SDS011;42208;6.376;-10.782;2023-01-20T06:35:59;57.00;;;29.25;;
56297;SDS011;42208;6.376;-10.782;2023-01-20T06:38:29;70.28;;;30.88;;
56297;SDS011;42208;6.376;-10.782;2023-01-20T06:40:59;50.95;;;29.83;;
56297;SDS011;42208;6.376;-10.782;2023-01-20T06:43:30;71.10;;;28.73;;
56297;SDS011;42208;6.376;-10.782;2023-01-20T06:46:03;67.97;;;29.20;;
56297;SDS011;42208;6.376;-10.782;2023-01-20T06:48:33;75.18;;;32.00;;
56297;SDS011;42208;6.376;-10.782;2023-01-20T06:53:31;77.40;;;29.63;;
56297;SDS011;42208;6.376;-10.782;2023-01-20T06:56:00;64.43;;;30.17;;
56297;SDS011;42208;6.376;-10.782;2023-01-20T06:58:29;67.88;;;30.67;;
56297;SDS011;42208;6.376;-10.782;2023-01-20T07:01:03;64.97;;;31.08;;
56297;SDS011;42208;6.376;-10.782;2023-01-20T07:03:37;64.88;;;30.45;;
56297;SDS011;42208;6.376;-10.782;2023-01-20T07:08:51;72.68;;;37.00;;
56297;SDS011;42208;6.376;-10.782;2023-01-20T07:11:19;69.60;;;36.70;;
56297;SDS011;42208;6.376;-10.782;2023-01-20T07:13:47;84.05;;;37.15;;
56297;SDS011;42208;6.376;-10.782;2023-01-20T07:16:16;70.78;;;35.42;;
56297;SDS011;42208;6.376;-10.782;2023-01-20T07:18:48;78.30;;;35.83;;
56297;SDS011;42208;6.376;-10.782;2023-01-20T07:21:18;71.03;;;35.70;;
56297;SDS011;42208;6.376;-10.782;2023-01-20T07:23:47;91.70;;;35.35;;
56297;SDS011;42208;6.376;-10.782;2023-01-20T07:26:17;78.10;;;34.70;;
56297;SDS011;42208;6.376;-10.782;2023-01-20T07:28:47;93.50;;;33.30;;
56297;SDS011;42208;6.376;-10.782;2023-01-20T07:31:16;93.55;;;36.78;;
56297;SDS011;42208;6.376;-10.782;2023-01-20T07:33:49;85.22;;;33.90;;
56297;SDS011;42208;6.376;-10.782;2023-01-20T07:36:17;93.70;;;39.08;;
56297;SDS011;42208;6.376;-10.782;2023-01-20T07:38:50;92.88;;;39.13;;
56297;SDS011;42208;6.376;-10.782;2023-01-20T07:41:19;107.65;;;43.50;;
56297;SDS011;42208;6.376;-10.782;2023-01-20T07:43:49;110.28;;;42.75;;
56297;SDS011;42208;6.376;-10.782;2023-01-20T07:46:19;125.15;;;47.20;;
56297;SDS011;42208;6.376;-10.782;2023-01-20T07:48:47;117.47;;;44.58;;
56297;SDS011;42208;6.376;-10.782;2023-01-20T07:51:17;112.60;;;45.90;;
56297;SDS011;42208;6.376;-10.782;2023-01-20T07:53:46;112.40;;;45.92;;
56297;SDS011;42208;6.376;-10.782;2023-01-20T07:56:17;118.65;;;46.45;;
56297;SDS011;42208;6.376;-10.782;2023-01-20T07:58:50;113.03;;;44.53;;
56297;SDS011;42208;6.376;-10.782;2023-01-20T08:01:21;114.25;;;42.88;;
56297;SDS011;42208;6.376;-10.782;2023-01-20T08:03:53;122.82;;;41.80;;
56297;SDS011;42208;6.376;-10.782;2023-01-20T08:06:23;110.03;;;35.88;;
56297;SDS011;42208;6.376;-10.782;2023-01-20T08:08:53;89.40;;;35.65;;
56297;SDS011;42208;6.376;-10.782;2023-01-20T08:11:24;88.97;;;35.25;;
56297;SDS011;42208;6.376;-10.782;2023-01-20T08:13:53;105.80;;;38.00;;
56297;SDS011;42208;6.376;-10.782;2023-01-20T08:16:21;97.03;;;38.92;;
56297;SDS011;42208;6.376;-10.782;2023-01-20T08:18:51;104.03;;;35.35;;
56297;SDS011;42208;6.376;-10.782;2023-01-20T08:21:27;126.43;;;39.17;;
56297;SDS011;42208;6.376;-10.782;2023-01-20T08:23:57;99.38;;;38.65;;
56297;SDS011;42208;6.376;-10.782;2023-01-20T08:26:29;100.07;;;38.53;;
56297;SDS011;42208;6.376;-10.782;2023-01-20T08:29:02;104.93;;;39.13;;
56297;SDS011;42208;6.376;-10.782;2023-01-20T08:31:33;93.20;;;36.15;;
56297;SDS011;42208;6.376;-10.782;2023-01-20T08:34:01;105.22;;;37.03;;
56297;SDS011;42208;6.376;-10.782;2023-01-20T08:36:31;75.93;;;32.33;;
56297;SDS011;42208;6.376;-10.782;2023-01-20T08:39:05;118.03;;;36.83;;
56297;SDS011;42208;6.376;-10.782;2023-01-20T08:41:36;89.28;;;35.00;;
56297;SDS011;42208;6.376;-10.782;2023-01-20T08:44:06;92.88;;;34.50;;
56297;SDS011;42208;6.376;-10.782;2023-01-20T08:46:35;101.25;;;37.80;;
56297;SDS011;42208;6.376;-10.782;2023-01-20T08:49:08;71.75;;;30.10;;
56297;SDS011;42208;6.376;-10.782;2023-01-20T08:51:41;88.03;;;34.13;;
56297;SDS011;42208;6.376;-10.782;2023-01-20T08:54:11;74.65;;;30.08;;
56297;SDS011;42208;6.376;-10.782;2023-01-20T08:56:40;70.78;;;29.02;;
56297;SDS011;42208;6.376;-10.782;2023-01-20T08:59:09;71.10;;;29.90;;
56297;SDS011;42208;6.376;-10.782;2023-01-20T09:01:37;57.65;;;26.17;;
56297;SDS011;42208;6.376;-10.782;2023-01-20T09:04:05;79.40;;;28.75;;
56297;SDS011;42208;6.376;-10.782;2023-01-20T09:06:41;82.10;;;30.15;;
56297;SDS011;42208;6.376;-10.782;2023-01-20T09:09:14;84.78;;;31.05;;
56297;SDS011;42208;6.376;-10.782;2023-01-20T09:11:44;77.32;;;31.17;;
56297;SDS011;42208;6.376;-10.782;2023-01-20T09:14:14;75.88;;;28.92;;
56297;SDS011;42208;6.376;-10.782;2023-01-20T09:16:43;77.60;;;31.35;;
56297;SDS011;42208;6.376;-10.782;2023-01-20T09:19:11;78.97;;;30.13;;
56297;SDS011;42208;6.376;-10.782;2023-01-20T09:21:40;65.95;;;30.98;;
56297;SDS011;42208;6.376;-10.782;2023-01-20T09:24:09;63.60;;;28.60;;
56297;SDS011;42208;6.376;-10.782;2023-01-20T09:26:37;61.60;;;28.27;;
56297;SDS011;42208;6.376;-10.782;2023-01-20T09:29:15;70.25;;;27.30;;
56297;SDS011;42208;6.376;-10.782;2023-01-20T09:31:49;65.47;;;24.55;;
56297;SDS011;42208;6.376;-10.782;2023-01-20T09:34:19;52.35;;;23.25;;
56297;SDS011;42208;6.376;-10.782;2023-01-20T09:36:51;65.68;;;24.50;;
56297;SDS011;42208;6.376;-10.782;2023-01-20T09:39:21;69.47;;;24.13;;
56297;SDS011;42208;6.376;-10.782;2023-01-20T09:41:50;52.40;;;22.88;;
56297;SDS011;42208;6.376;-10.782;2023-01-20T09:52:47;54.42;;;22.80;;
56297;SDS011;42208;6.376;-10.782;2023-01-20T09:55:17;58.50;;;24.17;;
56297;SDS011;42208;6.376;-10.782;2023-01-20T09:57:55;54.47;;;25.05;;
56297;SDS011;42208;6.376;-10.782;2023-01-20T10:00:46;59.33;;;23.52;;
56297;SDS011;42208;6.376;-10.782;2023-01-20T10:03:21;66.38;;;23.58;;
56297;SDS011;42208;6.376;-10.782;2023-01-20T10:05:58;58.83;;;23.77;;
56297;SDS011;42208;6.376;-10.782;2023-01-20T10:08:30;51.08;;;22.80;;
56297;SDS011;42208;6.376;-10.782;2023-01-20T10:11:30;55.30;;;22.73;;
56297;SDS011;42208;6.376;-10.782;2023-01-20T10:14:24;57.55;;;22.85;;
56297;SDS011;42208;6.376;-10.782;2023-01-20T10:19:57;60.15;;;22.35;;
56297;SDS011;42208;6.376;-10.782;2023-01-20T10:22:36;72.45;;;22.65;;
56297;SDS011;42208;6.376;-10.782;2023-01-20T10:25:20;62.47;;;25.08;;
56297;SDS011;42208;6.376;-10.782;2023-01-20T10:28:10;52.15;;;21.42;;
56297;SDS011;42208;6.376;-10.782;2023-01-20T10:35:57;61.50;;;23.33;;
56297;SDS011;42208;6.376;-10.782;2023-01-20T10:41:34;77.45;;;28.20;;
56297;SDS011;42208;6.376;-10.782;2023-01-20T10:44:12;65.28;;;24.75;;
56297;SDS011;42208;6.376;-10.782;2023-01-20T10:55:05;65.78;;;21.58;;
56297;SDS011;42208;6.376;-10.782;2023-01-20T10:57:51;55.72;;;20.92;;
56297;SDS011;42208;6.376;-10.782;2023-01-20T11:00:28;60.00;;;21.77;;
56297;SDS011;42208;6.376;-10.782;2023-01-20T11:02:59;70.25;;;25.63;;
56297;SDS011;42208;6.376;-10.782;2023-01-20T11:05:29;67.30;;;23.92;;
56297;SDS011;42208;6.376;-10.782;2023-01-20T11:08:00;56.70;;;19.70;;
56297;SDS011;42208;6.376;-10.782;2023-01-20T11:10:31;65.18;;;21.38;;
56297;SDS011;42208;6.376;-10.782;2023-01-20T11:13:00;51.58;;;18.98;;
56297;SDS011;42208;6.376;-10.782;2023-01-20T11:20:44;65.72;;;20.80;;
56297;SDS011;42208;6.376;-10.782;2023-01-20T11:25:58;51.88;;;21.13;;
56297;SDS011;42208;6.376;-10.782;2023-01-20T11:28:31;53.00;;;20.83;;
56297;SDS011;42208;6.376;-10.782;2023-01-20T11:34:22;52.65;;;20.90;;
56297;SDS011;42208;6.376;-10.782;2023-01-20T11:37:15;72.20;;;21.87;;
56297;SDS011;42208;6.376;-10.782;2023-01-20T11:44:57;50.85;;;19.98;;
56297;SDS011;42208;6.376;-10.782;2023-01-20T11:50:48;52.65;;;18.85;;
56297;SDS011;42208;6.376;-10.782;2023-01-20T11:53:24;66.63;;;19.33;;
56297;SDS011;42208;6.376;-10.782;2023-01-20T11:55:55;65.80;;;19.58;;
56297;SDS011;42208;6.376;-10.782;2023-01-20T11:58:31;42.60;;;18.20;;
56297;SDS011;42208;6.376;-10.782;2023-01-20T12:01:22;56.95;;;18.70;;
56297;SDS011;42208;6.376;-10.782;2023-01-20T12:06:48;50.22;;;20.23;;
56297;SDS011;42208;6.376;-10.782;2023-01-20T12:09:26;55.08;;;20.17;;
56297;SDS011;42208;6.376;-10.782;2023-01-20T12:15:02;53.25;;;18.60;;
56297;SDS011;42208;6.376;-10.782;2023-01-20T12:20:25;77.60;;;25.85;;
56297;SDS011;42208;6.376;-10.782;2023-01-20T12:23:32;66.72;;;20.60;;
56297;SDS011;42208;6.376;-10.782;2023-01-20T12:26:14;44.58;;;16.95;;
56297;SDS011;42208;6.376;-10.782;2023-01-20T12:31:31;78.55;;;20.90;;
56297;SDS011;42208;6.376;-10.782;2023-01-20T12:39:22;39.42;;;16.10;;
56297;SDS011;42208;6.376;-10.782;2023-01-20T12:54:27;55.90;;;19.67;;
56297;SDS011;42208;6.376;-10.782;2023-01-20T13:16:55;52.10;;;20.45;;
56297;SDS011;42208;6.376;-10.782;2023-01-20T13:24:42;63.95;;;19.42;;
56297;SDS011;42208;6.376;-10.782;2023-01-20T13:32:51;54.88;;;17.88;;
56297;SDS011;42208;6.376;-10.782;2023-01-20T13:37:47;59.42;;;18.75;;
56297;SDS011;42208;6.376;-10.782;2023-01-20T13:51:47;49.75;;;16.60;;
56297;SDS011;42208;6.376;-10.782;2023-01-20T13:56:50;62.33;;;17.20;;
56297;SDS011;42208;6.376;-10.782;2023-01-20T13:59:19;47.65;;;19.40;;
56297;SDS011;42208;6.376;-10.782;2023-01-20T14:01:47;51.72;;;20.45;;
56297;SDS011;42208;6.376;-10.782;2023-01-20T14:04:16;42.50;;;17.45;;
56297;SDS011;42208;6.376;-10.782;2023-01-20T14:06:47;68.47;;;22.10;;
56297;SDS011;42208;6.376;-10.782;2023-01-20T14:09:21;54.00;;;17.48;;
56297;SDS011;42208;6.376;-10.782;2023-01-20T14:11:53;50.13;;;17.65;;
56297;SDS011;42208;6.376;-10.782;2023-01-20T14:14:24;64.90;;;21.58;;
56297;SDS011;42208;6.376;-10.782;2023-01-20T14:16:53;46.70;;;16.73;;
56297;SDS011;42208;6.376;-10.782;2023-01-20T14:19:29;49.38;;;17.98;;
56297;SDS011;42208;6.376;-10.782;2023-01-20T14:22:03;42.75;;;17.10;;
56297;SDS011;42208;6.376;-10.782;2023-01-20T14:24:44;40.17;;;17.73;;
56297;SDS011;42208;6.376;-10.782;2023-01-20T14:27:24;59.70;;;17.50;;
56297;SDS011;42208;6.376;-10.782;2023-01-20T14:29:55;49.60;;;17.55;;
56297;SDS011;42208;6.376;-10.782;2023-01-20T14:32:25;60.60;;;21.50;;
56297;SDS011;42208;6.376;-10.782;2023-01-20T14:35:11;60.35;;;18.50;;
56297;SDS011;42208;6.376;-10.782;2023-01-20T14:37:41;62.83;;;20.77;;
56297;SDS011;42208;6.376;-10.782;2023-01-20T14:42:38;50.47;;;19.27;;
56297;SDS011;42208;6.376;-10.782;2023-01-20T14:45:17;42.72;;;17.13;;
56297;SDS011;42208;6.376;-10.782;2023-01-20T14:47:47;47.92;;;17.90;;
56297;SDS011;42208;6.376;-10.782;2023-01-20T14:50:17;56.47;;;17.95;;
56297;SDS011;42208;6.376;-10.782;2023-01-20T14:52:47;57.75;;;18.65;;
56297;SDS011;42208;6.376;-10.782;2023-01-20T14:56:16;48.65;;;17.15;;
56297;SDS011;42208;6.376;-10.782;2023-01-20T14:58:46;42.22;;;17.75;;
56297;SDS011;42208;6.376;-10.782;2023-01-20T15:01:22;57.55;;;18.05;;
56297;SDS011;42208;6.376;-10.782;2023-01-20T15:03:55;52.05;;;16.55;;
56297;SDS011;42208;6.376;-10.782;2023-01-20T15:06:25;58.05;;;18.13;;
56297;SDS011;42208;6.376;-10.782;2023-01-20T15:08:53;66.10;;;20.85;;
56297;SDS011;42208;6.376;-10.782;2023-01-20T15:11:32;67.10;;;19.40;;
56297;SDS011;42208;6.376;-10.782;2023-01-20T15:21:42;71.05;;;26.67;;
56297;SDS011;42208;6.376;-10.782;2023-01-20T15:27:22;97.10;;;29.20;;
56297;SDS011;42208;6.376;-10.782;2023-01-20T15:30:15;56.03;;;21.05;;
56297;SDS011;42208;6.376;-10.782;2023-01-20T15:32:46;51.90;;;20.58;;
56297;SDS011;42208;6.376;-10.782;2023-01-20T15:35:17;70.72;;;20.42;;
56297;SDS011;42208;6.376;-10.782;2023-01-20T15:37:47;57.70;;;20.42;;
56297;SDS011;42208;6.376;-10.782;2023-01-20T15:40:17;71.45;;;22.65;;
56297;SDS011;42208;6.376;-10.782;2023-01-20T15:42:47;75.97;;;24.83;;
56297;SDS011;42208;6.376;-10.782;2023-01-20T15:45:17;51.65;;;21.40;;
56297;SDS011;42208;6.376;-10.782;2023-01-20T15:47:45;67.30;;;25.17;;
56297;SDS011;42208;6.376;-10.782;2023-01-20T15:50:17;47.47;;;18.52;;
56297;SDS011;42208;6.376;-10.782;2023-01-20T15:52:48;53.40;;;20.80;;
56297;SDS011;42208;6.376;-10.782;2023-01-20T15:55:17;55.88;;;19.98;;
56297;SDS011;42208;6.376;-10.782;2023-01-20T15:57:48;45.65;;;18.08;;
56297;SDS011;42208;6.376;-10.782;2023-01-20T16:00:20;55.78;;;20.33;;
56297;SDS011;42208;6.376;-10.782;2023-01-20T16:02:49;70.40;;;18.53;;
56297;SDS011;42208;6.376;-10.782;2023-01-20T16:05:18;54.30;;;19.08;;
56297;SDS011;42208;6.376;-10.782;2023-01-20T16:07:46;57.00;;;19.45;;
56297;SDS011;42208;6.376;-10.782;2023-01-20T16:10:16;62.80;;;19.90;;
56297;SDS011;42208;6.376;-10.782;2023-01-20T16:12:45;67.68;;;19.85;;
56297;SDS011;42208;6.376;-10.782;2023-01-20T16:15:15;58.60;;;19.20;;
56297;SDS011;42208;6.376;-10.782;2023-01-20T16:17:44;62.35;;;20.13;;
56297;SDS011;42208;6.376;-10.782;2023-01-20T16:20:23;54.80;;;20.70;;
56297;SDS011;42208;6.376;-10.782;2023-01-20T16:22:52;71.38;;;19.58;;
56297;SDS011;42208;6.376;-10.782;2023-01-20T16:25:20;64.25;;;20.25;;
56297;SDS011;42208;6.376;-10.782;2023-01-20T16:27:48;62.78;;;21.67;;
56297;SDS011;42208;6.376;-10.782;2023-01-20T16:30:18;77.18;;;19.90;;
56297;SDS011;42208;6.376;-10.782;2023-01-20T16:32:48;63.27;;;22.57;;
56297;SDS011;42208;6.376;-10.782;2023-01-20T16:35:18;78.82;;;25.45;;
56297;SDS011;42208;6.376;-10.782;2023-01-20T16:37:47;66.68;;;20.70;;
56297;SDS011;42208;6.376;-10.782;2023-01-20T16:40:16;58.13;;;19.90;;
56297;SDS011;42208;6.376;-10.782;2023-01-20T16:42:46;62.30;;;23.60;;
56297;SDS011;42208;6.376;-10.782;2023-01-20T16:45:25;63.03;;;19.05;;
56297;SDS011;42208;6.376;-10.782;2023-01-20T16:47:55;58.30;;;21.73;;
56297;SDS011;42208;6.376;-10.782;2023-01-20T16:50:23;61.70;;;21.80;;
56297;SDS011;42208;6.376;-10.782;2023-01-20T16:52:51;64.78;;;21.45;;
56297;SDS011;42208;6.376;-10.782;2023-01-20T16:55:20;103.18;;;23.00;;
56297;SDS011;42208;6.376;-10.782;2023-01-20T16:57:48;54.55;;;18.73;;
56297;SDS011;42208;6.376;-10.782;2023-01-20T17:00:17;74.28;;;22.13;;
56297;SDS011;42208;6.376;-10.782;2023-01-20T17:02:50;71.30;;;19.73;;
56297;SDS011;42208;6.376;-10.782;2023-01-20T17:05:19;51.42;;;18.40;;
56297;SDS011;42208;6.376;-10.782;2023-01-20T17:07:48;64.90;;;24.52;;
56297;SDS011;42208;6.376;-10.782;2023-01-20T17:10:17;57.08;;;21.45;;
56297;SDS011;42208;6.376;-10.782;2023-01-20T17:12:46;62.22;;;21.75;;
56297;SDS011;42208;6.376;-10.782;2023-01-20T17:15:15;68.40;;;21.50;;
56297;SDS011;42208;6.376;-10.782;2023-01-20T17:17:47;64.10;;;19.95;;
56297;SDS011;42208;6.376;-10.782;2023-01-20T17:20:19;54.92;;;19.83;;
56297;SDS011;42208;6.376;-10.782;2023-01-20T17:22:48;56.80;;;20.42;;
56297;SDS011;42208;6.376;-10.782;2023-01-20T17:25:19;73.95;;;23.45;;
56297;SDS011;42208;6.376;-10.782;2023-01-20T17:27:48;70.45;;;23.13;;
56297;SDS011;42208;6.376;-10.782;2023-01-20T17:30:16;66.15;;;20.13;;
56297;SDS011;42208;6.376;-10.782;2023-01-20T17:32:45;66.75;;;23.15;;